Time;durP1;ratioP1;P1;durP2;ratioP2;P2;SDS_P1;SDS_P2;PMS_P1;PMS_P2;Temp;Humidity;BMP_temperature;BMP_pressure;BME280_temperature;BME280_humidity;BME280_pressure;Samples;Min_cycle;Max_cycle;Signal;HPM_P1;HPM_P2
2023/06/07 00:02:12;;;;;;;58.67;3.73;;;;;;;;;;5051172;28;20464;-67
2023/06/07 00:04:40;;;;;;;57.37;2.37;;;;;;;;;;5051315;28;20452;-67
2023/06/07 00:07:10;;;;;;;57.33;2.60;;;;;;;;;;5050807;28;20945;-67
2023/06/07 00:09:37;;;;;;;57.47;2.60;;;;;;;;;;5050521;28;20480;-66
2023/06/07 00:12:06;;;;;;;57.30;2.77;;;;;;;;;;5051140;28;20468;-66
2023/06/07 00:14:33;;;;;;;57.47;2.53;;;;;;;;;;5050837;28;20452;-66
2023/06/07 00:17:00;;;;;;;57.37;2.60;;;;;;;;;;5050793;28;20450;-66
2023/06/07 00:19:27;;;;;;;59.10;3.23;;;;;;;;;;5050347;28;20444;-66
2023/06/07 00:21:55;;;;;;;57.80;2.70;;;;;;;;;;5050582;28;20939;-66
2023/06/07 00:24:24;;;;;;;58.33;2.80;;;;;;;;;;5050639;28;20460;-66
2023/06/07 00:26:51;;;;;;;57.50;2.80;;;;;;;;;;5050903;28;20452;-66
2023/06/07 00:29:18;;;;;;;57.57;2.70;;;;;;;;;;5050179;28;20514;-66
2023/06/07 00:31:45;;;;;;;57.80;3.00;;;;;;;;;;5050615;28;20455;-67
2023/06/07 00:34:12;;;;;;;57.53;2.50;;;;;;;;;;5052333;28;20448;-66
2023/06/07 00:36:40;;;;;;;57.23;2.20;;;;;;;;;;5054362;28;20459;-66
2023/06/07 00:39:07;;;;;;;57.37;2.30;;;;;;;;;;5053858;28;20446;-66
2023/06/07 00:41:35;;;;;;;57.80;2.60;;;;;;;;;;5054641;28;20831;-66
2023/06/07 00:44:02;;;;;;;57.37;2.73;;;;;;;;;;5054575;28;20458;-66
2023/06/07 00:46:31;;;;;;;57.47;2.53;;;;;;;;;;5054667;28;20857;-66
2023/06/07 00:48:58;;;;;;;58.87;4.07;;;;;;;;;;5053680;28;20484;-66
2023/06/07 00:51:25;;;;;;;57.30;2.47;;;;;;;;;;5054808;28;20471;-66
2023/06/07 00:53:53;;;;;;;57.33;2.40;;;;;;;;;;5054551;28;20490;-66
2023/06/07 00:56:20;;;;;;;58.47;4.50;;;;;;;;;;5054039;28;20555;-66
2023/06/07 00:58:49;;;;;;;59.30;3.43;;;;;;;;;;5053750;28;20459;-66
2023/06/07 01:01:17;;;;;;;57.47;2.40;;;;;;;;;;5054284;28;20448;-67
2023/06/07 01:03:45;;;;;;;57.70;2.60;;;;;;;;;;5053926;28;20526;-66
2023/06/07 01:06:13;;;;;;;57.90;2.90;;;;;;;;;;5054157;28;20444;-66
2023/06/07 01:08:40;;;;;;;58.00;3.03;;;;;;;;;;5053342;28;20487;-66
2023/06/07 01:11:08;;;;;;;57.37;2.60;;;;;;;;;;5053881;28;20463;-67
2023/06/07 01:13:36;;;;;;;57.47;2.47;;;;;;;;;;5053730;28;20471;-66
2023/06/07 01:16:05;;;;;;;57.17;2.50;;;;;;;;;;5053542;28;20444;-67
2023/06/07 01:18:32;;;;;;;57.27;2.47;;;;;;;;;;5050255;28;20456;-66
2023/06/07 01:21:00;;;;;;;57.37;2.40;;;;;;;;;;5053719;28;20460;-66
2023/06/07 01:23:31;;;;;;;58.30;3.00;;;;;;;;;;5053395;28;20563;-66
2023/06/07 01:25:59;;;;;;;59.13;2.60;;;;;;;;;;5053797;28;20444;-67
2023/06/07 01:28:27;;;;;;;57.37;2.40;;;;;;;;;;5053637;28;20445;-66
2023/06/07 01:30:54;;;;;;;60.20;4.07;;;;;;;;;;5053089;28;20982;-66
2023/06/07 01:33:22;;;;;;;57.70;2.80;;;;;;;;;;5053295;28;20476;-66
2023/06/07 01:35:50;;;;;;;57.57;2.70;;;;;;;;;;5053481;28;20452;-66
2023/06/07 01:38:19;;;;;;;58.77;3.00;;;;;;;;;;5053700;28;20455;-66
2023/06/07 01:40:47;;;;;;;57.57;2.60;;;;;;;;;;5052822;28;20452;-66
2023/06/07 01:43:15;;;;;;;57.60;2.90;;;;;;;;;;5053377;28;20471;-66
2023/06/07 01:45:43;;;;;;;57.57;2.80;;;;;;;;;;5053242;28;20452;-66
2023/06/07 01:48:10;;;;;;;57.40;2.43;;;;;;;;;;5053275;28;20448;-66
2023/06/07 01:50:37;;;;;;;57.87;2.87;;;;;;;;;;5052528;28;20487;-67
2023/06/07 01:53:04;;;;;;;57.67;2.90;;;;;;;;;;5052997;28;20476;-66
2023/06/07 01:55:32;;;;;;;58.37;3.83;;;;;;;;;;5053062;28;20447;-66
2023/06/07 01:58:07;;;;;;;57.37;2.50;;;;;;;;;;5053100;28;20448;-66
2023/06/07 02:00:36;;;;;;;57.37;2.63;;;;;;;;;;5052325;28;20479;-66
2023/06/07 02:03:08;;;;;;;57.83;2.60;;;;;;;;;;5052683;28;20468;-66
2023/06/07 02:05:35;;;;;;;57.50;2.70;;;;;;;;;;5053026;28;20452;-67
2023/06/07 02:08:04;;;;;;;57.67;2.70;;;;;;;;;;5052986;28;20839;-66
2023/06/07 02:10:32;;;;;;;57.80;3.53;;;;;;;;;;5051979;28;21016;-67
2023/06/07 02:13:01;;;;;;;57.63;2.80;;;;;;;;;;5052672;28;20468;-66
2023/06/07 02:15:29;;;;;;;57.40;3.20;;;;;;;;;;5052525;28;20971;-66
2023/06/07 02:17:58;;;;;;;57.70;2.80;;;;;;;;;;5052778;28;20444;-67
2023/06/07 02:20:26;;;;;;;57.40;2.73;;;;;;;;;;5051845;28;20949;-66
2023/06/07 02:22:53;;;;;;;57.60;2.77;;;;;;;;;;5052407;28;20472;-66
2023/06/07 02:25:20;;;;;;;57.53;2.80;;;;;;;;;;5052467;28;20454;-66
2023/06/07 02:27:47;;;;;;;57.57;2.60;;;;;;;;;;5052461;28;20444;-66
2023/06/07 02:30:14;;;;;;;57.80;2.80;;;;;;;;;;5051443;28;21004;-66
2023/06/07 02:32:45;;;;;;;57.40;2.67;;;;;;;;;;5052332;28;20472;-66
2023/06/07 02:35:12;;;;;;;57.67;2.60;;;;;;;;;;5052448;28;20448;-66
2023/06/07 02:37:39;;;;;;;57.37;2.33;;;;;;;;;;5052206;28;20448;-66
2023/06/07 02:40:08;;;;;;;57.47;2.70;;;;;;;;;;5051740;28;20445;-66
2023/06/07 02:42:36;;;;;;;58.10;3.63;;;;;;;;;;5051967;28;20508;-66
2023/06/07 02:45:03;;;;;;;57.70;3.40;;;;;;;;;;5052162;28;20475;-66
2023/06/07 02:47:30;;;;;;;57.33;2.60;;;;;;;;;;5052108;28;20455;-66
2023/06/07 02:50:00;;;;;;;57.37;2.53;;;;;;;;;;5051177;28;21015;-66
2023/06/07 02:52:27;;;;;;;57.50;2.83;;;;;;;;;;5051856;28;21042;-66
2023/06/07 02:54:54;;;;;;;58.57;3.43;;;;;;;;;;5051793;28;20455;-67
2023/06/07 02:57:22;;;;;;;57.40;2.60;;;;;;;;;;5050975;28;20486;-66
2023/06/07 02:59:49;;;;;;;57.33;2.50;;;;;;;;;;5051119;28;20459;-66
2023/06/07 03:02:16;;;;;;;57.40;2.70;;;;;;;;;;5051957;28;20554;-66
2023/06/07 03:04:43;;;;;;;57.80;3.13;;;;;;;;;;5051843;28;20448;-66
2023/06/07 03:07:12;;;;;;;57.87;2.60;;;;;;;;;;5051816;28;20483;-66
2023/06/07 03:09:39;;;;;;;57.57;2.80;;;;;;;;;;5050797;28;20515;-66
2023/06/07 03:12:07;;;;;;;60.00;3.33;;;;;;;;;;5051823;28;20483;-66
2023/06/07 03:14:34;;;;;;;57.67;2.83;;;;;;;;;;5051474;28;20513;-66
2023/06/07 03:17:02;;;;;;;57.30;2.40;;;;;;;;;;5051613;28;20460;-66
2023/06/07 03:19:29;;;;;;;57.57;2.50;;;;;;;;;;5050942;28;20448;-66
2023/06/07 03:21:57;;;;;;;57.33;2.70;;;;;;;;;;5051397;28;20883;-66
2023/06/07 03:24:28;;;;;;;57.33;2.40;;;;;;;;;;5051699;28;20452;-66
2023/06/07 03:26:57;;;;;;;57.17;2.13;;;;;;;;;;5051481;28;20527;-66
2023/06/07 03:29:24;;;;;;;57.90;3.20;;;;;;;;;;5050850;28;20914;-66
2023/06/07 03:31:51;;;;;;;57.37;2.70;;;;;;;;;;5051351;28;20578;-67
2023/06/07 03:34:18;;;;;;;57.50;2.50;;;;;;;;;;5051380;28;20454;-67
2023/06/07 03:36:47;;;;;;;57.97;3.00;;;;;;;;;;5051039;28;20957;-67
2023/06/07 03:39:14;;;;;;;57.47;2.40;;;;;;;;;;5050622;28;20467;-67
2023/06/07 03:41:43;;;;;;;57.30;2.43;;;;;;;;;;5051152;28;20456;-67
2023/06/07 03:44:10;;;;;;;57.50;2.40;;;;;;;;;;5051056;28;20456;-67
2023/06/07 03:46:37;;;;;;;59.60;2.73;;;;;;;;;;5051037;28;20452;-67
2023/06/07 03:49:04;;;;;;;57.40;2.60;;;;;;;;;;5050802;28;20456;-67
2023/06/07 03:51:32;;;;;;;57.13;2.40;;;;;;;;;;5051040;28;20451;-67
2023/06/07 03:53:59;;;;;;;57.40;2.83;;;;;;;;;;5051005;28;20546;-67
2023/06/07 03:56:26;;;;;;;57.50;2.50;;;;;;;;;;5050902;28;20456;-67
2023/06/07 03:58:55;;;;;;;57.80;2.70;;;;;;;;;;5050646;28;20456;-67
2023/06/07 04:01:25;;;;;;;57.23;2.63;;;;;;;;;;5050940;28;20444;-67
2023/06/07 04:03:52;;;;;;;57.93;3.57;;;;;;;;;;5050794;28;20476;-67
2023/06/07 04:06:24;;;;;;;57.53;2.73;;;;;;;;;;5051126;28;20466;-67
2023/06/07 04:08:52;;;;;;;57.20;2.47;;;;;;;;;;5051317;28;20448;-67
2023/06/07 04:11:20;;;;;;;57.50;2.57;;;;;;;;;;5054845;28;21076;-67
2023/06/07 04:13:47;;;;;;;57.57;2.77;;;;;;;;;;5055301;28;20479;-67
2023/06/07 04:16:15;;;;;;;58.70;2.93;;;;;;;;;;5054875;28;20444;-67
2023/06/07 04:18:42;;;;;;;57.40;2.60;;;;;;;;;;5053988;28;20452;-67
2023/06/07 04:21:09;;;;;;;57.50;2.53;;;;;;;;;;5055097;28;20451;-67
2023/06/07 04:23:37;;;;;;;58.20;2.93;;;;;;;;;;5055201;28;20471;-67
2023/06/07 04:26:06;;;;;;;58.93;3.40;;;;;;;;;;5054686;28;20452;-67
2023/06/07 04:28:33;;;;;;;57.70;3.30;;;;;;;;;;5054437;28;20830;-67
2023/06/07 04:31:00;;;;;;;58.00;2.80;;;;;;;;;;5054386;28;20559;-67
2023/06/07 04:33:28;;;;;;;57.50;2.60;;;;;;;;;;5054945;28;20468;-67
2023/06/07 04:35:57;;;;;;;57.47;2.67;;;;;;;;;;5054674;28;20443;-67
2023/06/07 04:38:25;;;;;;;57.37;2.67;;;;;;;;;;5054914;28;20479;-67
2023/06/07 04:40:52;;;;;;;57.27;2.57;;;;;;;;;;5053750;28;20447;-67
2023/06/07 04:43:20;;;;;;;57.20;2.77;;;;;;;;;;5054428;28;20955;-67
2023/06/07 04:45:54;;;;;;;57.57;2.90;;;;;;;;;;5054492;28;20456;-67
2023/06/07 04:48:22;;;;;;;57.37;2.70;;;;;;;;;;5054563;28;20444;-67
2023/06/07 04:50:50;;;;;;;58.40;3.27;;;;;;;;;;5053459;28;20507;-67
2023/06/07 04:53:19;;;;;;;57.80;2.70;;;;;;;;;;5054549;28;20475;-67
2023/06/07 04:55:47;;;;;;;58.20;3.30;;;;;;;;;;5053969;28;20467;-67
2023/06/07 04:58:16;;;;;;;56.97;2.53;;;;;;;;;;5053865;28;20522;-67
2023/06/07 05:00:43;;;;;;;57.20;2.50;;;;;;;;;;5053356;28;20455;-67
2023/06/07 05:03:13;;;;;;;57.47;2.73;;;;;;;;;;5054035;28;20533;-67
2023/06/07 05:05:41;;;;;;;58.00;4.10;;;;;;;;;;5054411;28;20448;-67
2023/06/07 05:08:09;;;;;;;57.30;2.67;;;;;;;;;;5054363;28;20543;-67
2023/06/07 05:10:36;;;;;;;58.57;3.10;;;;;;;;;;5052915;28;20484;-67
2023/06/07 05:13:04;;;;;;;57.50;2.80;;;;;;;;;;5053892;28;20471;-67
2023/06/07 05:15:32;;;;;;;57.63;2.80;;;;;;;;;;5053580;28;20951;-67
2023/06/07 05:17:59;;;;;;;57.23;2.77;;;;;;;;;;5053964;28;20441;-67
2023/06/07 05:20:27;;;;;;;57.50;2.80;;;;;;;;;;5052825;28;20502;-67
2023/06/07 05:22:54;;;;;;;57.50;2.80;;;;;;;;;;5053567;28;21034;-67
2023/06/07 05:25:23;;;;;;;57.40;2.57;;;;;;;;;;5053506;28;21023;-68
2023/06/07 05:27:52;;;;;;;57.60;2.80;;;;;;;;;;5053656;28;20952;-67
2023/06/07 05:30:19;;;;;;;58.03;3.20;;;;;;;;;;5053109;28;20480;-67
2023/06/07 05:32:48;;;;;;;57.67;2.93;;;;;;;;;;5053431;28;20468;-67
2023/06/07 05:35:15;;;;;;;57.77;2.63;;;;;;;;;;5053652;28;20452;-67
2023/06/07 05:37:42;;;;;;;57.27;2.73;;;;;;;;;;5053361;28;20459;-68
2023/06/07 05:40:10;;;;;;;57.30;3.23;;;;;;;;;;5052871;28;20445;-68
2023/06/07 05:42:39;;;;;;;57.20;2.40;;;;;;;;;;5053261;28;21003;-67
2023/06/07 05:45:07;;;;;;;57.47;2.83;;;;;;;;;;5053448;28;20805;-67
2023/06/07 05:47:34;;;;;;;58.17;3.03;;;;;;;;;;5053535;28;20844;-67
2023/06/07 05:50:01;;;;;;;57.53;3.23;;;;;;;;;;5052659;28;20488;-67
2023/06/07 05:52:28;;;;;;;58.10;2.70;;;;;;;;;;5052834;28;20472;-67
2023/06/07 05:54:57;;;;;;;57.30;2.70;;;;;;;;;;5053533;28;20444;-67
2023/06/07 05:57:24;;;;;;;57.40;2.70;;;;;;;;;;5053060;28;20873;-68
2023/06/07 05:59:53;;;;;;;57.53;3.00;;;;;;;;;;5052567;28;20452;-67
2023/06/07 06:02:20;;;;;;;57.30;3.17;;;;;;;;;;5053023;28;20996;-68
2023/06/07 06:04:48;;;;;;;57.27;2.70;;;;;;;;;;5052819;28;20506;-67
2023/06/07 06:07:17;;;;;;;57.63;3.00;;;;;;;;;;5052974;28;20440;-67
2023/06/07 06:09:44;;;;;;;57.27;3.10;;;;;;;;;;5052139;28;20448;-68
2023/06/07 06:12:11;;;;;;;57.30;3.00;;;;;;;;;;5052584;28;20475;-67
2023/06/07 06:14:38;;;;;;;57.07;2.70;;;;;;;;;;5052845;28;20452;-67
2023/06/07 06:17:07;;;;;;;59.20;3.57;;;;;;;;;;5052809;28;20470;-67
2023/06/07 06:19:34;;;;;;;57.70;3.00;;;;;;;;;;5051727;28;20466;-68
2023/06/07 06:22:02;;;;;;;58.30;3.50;;;;;;;;;;5052765;28;20464;-68
2023/06/07 06:24:29;;;;;;;57.67;3.03;;;;;;;;;;5052382;28;20452;-67
2023/06/07 06:26:56;;;;;;;57.50;2.80;;;;;;;;;;5052418;28;20552;-68
2023/06/07 06:29:24;;;;;;;57.23;2.80;;;;;;;;;;5052058;28;20459;-67
2023/06/07 06:31:51;;;;;;;57.30;3.00;;;;;;;;;;5051275;28;20522;-67
2023/06/07 06:34:20;;;;;;;57.70;3.47;;;;;;;;;;5052226;28;20975;-68
2023/06/07 06:36:48;;;;;;;57.27;3.03;;;;;;;;;;5052371;28;20448;-68
2023/06/07 06:39:15;;;;;;;58.90;3.17;;;;;;;;;;5051500;28;20456;-68
2023/06/07 06:41:42;;;;;;;57.03;2.23;;;;;;;;;;5052146;28;20448;-68
2023/06/07 06:44:09;;;;;;;56.87;2.30;;;;;;;;;;5052048;28;20457;-67
2023/06/07 06:46:36;;;;;;;57.40;2.70;;;;;;;;;;5051793;28;20867;-67
2023/06/07 06:49:04;;;;;;;57.37;2.60;;;;;;;;;;5051424;28;20539;-67
2023/06/07 06:51:32;;;;;;;57.07;2.50;;;;;;;;;;5052078;28;20488;-68
2023/06/07 06:53:59;;;;;;;58.17;4.10;;;;;;;;;;5052108;28;20448;-68
2023/06/07 06:56:26;;;;;;;57.57;2.80;;;;;;;;;;5051754;28;20468;-68
2023/06/07 06:58:54;;;;;;;57.90;3.03;;;;;;;;;;5051226;28;20452;-65
2023/06/07 07:01:21;;;;;;;57.90;3.10;;;;;;;;;;5051733;28;20971;-65
2023/06/07 07:03:48;;;;;;;57.70;3.00;;;;;;;;;;5051908;28;20461;-65
2023/06/07 07:06:16;;;;;;;57.70;3.13;;;;;;;;;;5051558;28;20452;-65
2023/06/07 07:08:45;;;;;;;58.23;4.10;;;;;;;;;;5050759;28;20456;-65
2023/06/07 07:11:12;;;;;;;57.30;3.13;;;;;;;;;;5051435;28;20484;-65
2023/06/07 07:13:39;;;;;;;57.27;2.67;;;;;;;;;;5051661;28;20875;-65
2023/06/07 07:16:06;;;;;;;57.67;3.00;;;;;;;;;;5051366;28;20452;-65
2023/06/07 07:18:33;;;;;;;61.87;2.90;;;;;;;;;;5051061;28;20445;-65
2023/06/07 07:21:00;;;;;;;57.70;2.70;;;;;;;;;;5051384;28;20448;-65
2023/06/07 07:23:27;;;;;;;57.43;3.00;;;;;;;;;;5051293;28;20480;-66
2023/06/07 07:25:56;;;;;;;57.23;3.10;;;;;;;;;;5051104;28;20957;-65
2023/06/07 07:28:23;;;;;;;56.93;2.73;;;;;;;;;;5051354;28;20567;-66
2023/06/07 07:30:50;;;;;;;57.27;2.50;;;;;;;;;;5050831;28;20923;-65
2023/06/07 07:33:17;;;;;;;57.27;2.53;;;;;;;;;;5051460;28;20563;-66
2023/06/07 07:35:44;;;;;;;57.40;2.87;;;;;;;;;;5051053;28;20983;-66
2023/06/07 07:38:15;;;;;;;58.90;3.27;;;;;;;;;;5051127;28;20444;-66
2023/06/07 07:40:43;;;;;;;57.40;3.17;;;;;;;;;;5050382;28;20455;-66
2023/06/07 07:43:12;;;;;;;57.47;2.60;;;;;;;;;;5050731;28;21031;-66
2023/06/07 07:45:39;;;;;;;57.40;2.70;;;;;;;;;;5050888;28;20452;-66
2023/06/07 07:48:06;;;;;;;57.10;2.70;;;;;;;;;;5051228;28;20502;-66
2023/06/07 07:50:37;;;;;;;57.17;2.60;;;;;;;;;;5050290;28;20491;-66
2023/06/07 07:53:05;;;;;;;57.70;2.70;;;;;;;;;;5051209;28;20468;-66
2023/06/07 07:55:34;;;;;;;57.17;2.70;;;;;;;;;;5051042;28;20513;-66
2023/06/07 07:58:01;;;;;;;57.93;3.03;;;;;;;;;;5051448;28;20490;-66
2023/06/07 08:00:30;;;;;;;58.00;3.33;;;;;;;;;;5050250;28;20444;-66
2023/06/07 08:02:57;;;;;;;57.10;2.40;;;;;;;;;;5050976;28;20468;-66
2023/06/07 08:05:24;;;;;;;58.43;3.20;;;;;;;;;;5051115;28;20452;-66
2023/06/07 08:07:52;;;;;;;56.83;2.50;;;;;;;;;;5050937;28;20466;-66
2023/06/07 08:10:19;;;;;;;56.97;2.70;;;;;;;;;;5050397;28;20448;-67
2023/06/07 08:12:47;;;;;;;57.37;2.83;;;;;;;;;;5050728;28;20472;-67
2023/06/07 08:15:14;;;;;;;58.57;3.00;;;;;;;;;;5050910;28;20944;-67
2023/06/07 08:17:42;;;;;;;56.77;2.60;;;;;;;;;;5050647;28;20448;-67
2023/06/07 08:20:10;;;;;;;57.17;2.40;;;;;;;;;;5049945;28;20448;-67
2023/06/07 08:22:38;;;;;;;57.80;2.70;;;;;;;;;;5050774;28;20571;-67
2023/06/07 08:25:05;;;;;;;56.93;2.30;;;;;;;;;;5050995;28;20881;-67
2023/06/07 08:27:32;;;;;;;57.30;2.70;;;;;;;;;;5050900;28;20456;-67
2023/06/07 08:29:59;;;;;;;57.00;2.73;;;;;;;;;;5050304;28;20448;-67
2023/06/07 08:32:26;;;;;;;57.70;2.63;;;;;;;;;;5050790;28;20700;-68
2023/06/07 08:34:55;;;;;;;56.67;2.17;;;;;;;;;;5050398;28;20952;-67
2023/06/07 08:37:22;;;;;;;57.40;2.80;;;;;;;;;;5050640;28;20514;-67
2023/06/07 08:39:50;;;;;;;56.83;2.30;;;;;;;;;;5050319;28;20510;-67
2023/06/07 08:42:17;;;;;;;56.40;2.17;;;;;;;;;;5050608;28;20471;-68
2023/06/07 08:44:44;;;;;;;1999.90;999.90;;;;;;;;;;5050697;28;20821;-67
2023/06/07 08:47:13;;;;;;;1381.77;704.93;;;;;;;;;;5050338;28;20454;-67
2023/06/07 08:49:41;;;;;;;1999.90;999.90;;;;;;;;;;5050024;28;20813;-68
2023/06/07 08:52:11;;;;;;;1999.90;999.90;;;;;;;;;;5050170;28;21004;-67
2023/06/07 08:54:40;;;;;;;1999.90;999.90;;;;;;;;;;5051382;28;20452;-68
2023/06/07 08:57:07;;;;;;;1999.90;999.90;;;;;;;;;;5054577;28;20460;-67
2023/06/07 08:59:36;;;;;;;1999.90;999.90;;;;;;;;;;5053633;28;20801;-67
2023/06/07 09:02:03;;;;;;;1999.90;999.90;;;;;;;;;;5054053;28;20901;-68
2023/06/07 09:04:31;;;;;;;1999.90;999.90;;;;;;;;;;5054087;28;20798;-67
2023/06/07 09:06:58;;;;;;;155.80;142.13;;;;;;;;;;5054035;28;20487;-68
2023/06/07 09:09:26;;;;;;;1999.90;999.90;;;;;;;;;;5053394;28;20455;-67
2023/06/07 09:11:53;;;;;;;1999.90;999.90;;;;;;;;;;5053976;28;20488;-68
2023/06/07 09:14:21;;;;;;;1999.90;999.90;;;;;;;;;;5053805;28;20938;-68
2023/06/07 09:16:55;;;;;;;1522.37;697.87;;;;;;;;;;5053924;28;20451;-68
2023/06/07 09:19:33;;;;;;;1999.90;999.90;;;;;;;;;;5053132;28;20478;-67
2023/06/07 09:22:00;;;;;;;1999.90;999.90;;;;;;;;;;5053902;28;20828;-67
2023/06/07 09:24:31;;;;;;;1999.90;999.90;;;;;;;;;;5053565;28;20444;-67
2023/06/07 09:26:59;;;;;;;1999.90;999.90;;;;;;;;;;5053749;28;20451;-68
2023/06/07 09:29:27;;;;;;;1999.90;999.90;;;;;;;;;;5052780;28;20936;-67
2023/06/07 09:31:55;;;;;;;1999.90;999.90;;;;;;;;;;5053467;28;20488;-68
2023/06/07 09:34:22;;;;;;;111.63;61.67;;;;;;;;;;5053284;28;20945;-68
2023/06/07 09:36:50;;;;;;;102.50;47.27;;;;;;;;;;5053502;28;20471;-67
2023/06/07 09:39:21;;;;;;;114.70;73.60;;;;;;;;;;5052562;28;20460;-67
2023/06/07 09:41:50;;;;;;;1999.90;999.90;;;;;;;;;;5053243;28;20467;-68
2023/06/07 09:44:26;;;;;;;1999.90;999.90;;;;;;;;;;5053361;28;20448;-68
2023/06/07 09:46:54;;;;;;;1999.90;999.90;;;;;;;;;;5053199;28;20831;-68
2023/06/07 09:49:25;;;;;;;1999.90;999.90;;;;;;;;;;5052477;28;20459;-68
2023/06/07 09:51:53;;;;;;;1999.90;999.90;;;;;;;;;;5052478;28;20494;-68
2023/06/07 09:54:36;;;;;;;1999.90;999.90;;;;;;;;;;5053354;28;20506;-68
2023/06/07 09:57:05;;;;;;;1999.90;999.90;;;;;;;;;;5053013;28;20526;-68
2023/06/07 09:59:32;;;;;;;1999.90;999.90;;;;;;;;;;5052326;28;20484;-68
2023/06/07 10:01:59;;;;;;;1999.90;999.90;;;;;;;;;;5053070;28;20460;-68
2023/06/07 10:04:27;;;;;;;1999.90;999.90;;;;;;;;;;5052870;28;20448;-68
2023/06/07 10:06:57;;;;;;;1999.90;999.90;;;;;;;;;;5052765;28;20452;-68
2023/06/07 10:09:26;;;;;;;1999.90;999.90;;;;;;;;;;5052060;28;20506;-68
2023/06/07 10:11:55;;;;;;;1999.90;999.90;;;;;;;;;;5052748;28;20487;-68
2023/06/07 10:14:29;;;;;;;1999.90;999.90;;;;;;;;;;5052830;28;20459;-68
2023/06/07 10:17:00;;;;;;;1999.90;999.90;;;;;;;;;;5052651;28;20428;-68
2023/06/07 10:19:28;;;;;;;1999.90;999.90;;;;;;;;;;5051835;28;20445;-68
2023/06/07 10:21:57;;;;;;;1999.90;999.90;;;;;;;;;;5052775;28;20460;-68
2023/06/07 10:24:26;;;;;;;56.57;1.60;;;;;;;;;;5052771;28;20452;-66
2023/06/07 10:26:55;;;;;;;56.43;1.80;;;;;;;;;;5052542;28;20448;-66
2023/06/07 10:29:27;;;;;;;56.30;1.50;;;;;;;;;;5051683;28;20448;-66
2023/06/07 10:31:59;;;;;;;55.87;1.67;;;;;;;;;;5052492;28;20491;-66
2023/06/07 10:34:26;;;;;;;56.07;1.40;;;;;;;;;;5052567;28;20535;-68
2023/06/07 10:36:54;;;;;;;56.30;1.90;;;;;;;;;;5052397;28;20444;-67
2023/06/07 10:39:21;;;;;;;56.07;1.70;;;;;;;;;;5051718;28;20456;-67
2023/06/07 10:41:48;;;;;;;55.97;1.43;;;;;;;;;;5052014;28;20444;-66
2023/06/07 10:44:15;;;;;;;55.97;1.47;;;;;;;;;;5052333;28;20471;-67
2023/06/07 10:46:44;;;;;;;56.17;1.60;;;;;;;;;;5051926;28;20452;-67
2023/06/07 10:49:33;;;;;;;56.00;1.60;;;;;;;;;;5051651;28;20451;-66
2023/06/07 10:52:03;;;;;;;55.83;1.50;;;;;;;;;;5051592;28;20492;-67
2023/06/07 10:54:31;;;;;;;55.97;1.60;;;;;;;;;;5052009;28;20535;-67
2023/06/07 10:56:59;;;;;;;55.73;1.40;;;;;;;;;;5052232;28;20995;-67
2023/06/07 10:59:27;;;;;;;55.90;1.50;;;;;;;;;;5051082;28;20814;-67
2023/06/07 11:02:15;;;;;;;55.60;1.60;;;;;;;;;;5051908;28;20596;-67
2023/06/07 11:04:59;;;;;;;55.60;1.30;;;;;;;;;;5051621;28;20957;-67
2023/06/07 11:07:30;;;;;;;55.27;1.70;;;;;;;;;;5051732;28;20453;-68
2023/06/07 11:10:16;;;;;;;55.20;1.47;;;;;;;;;;5051150;28;20460;-67
2023/06/07 11:12:57;;;;;;;55.27;1.47;;;;;;;;;;5051646;28;20579;-67
2023/06/07 11:15:30;;;;;;;55.27;1.70;;;;;;;;;;5051477;28;20551;-67
2023/06/07 11:17:59;;;;;;;55.20;1.60;;;;;;;;;;5051194;28;20870;-67
2023/06/07 11:20:45;;;;;;;55.50;1.90;;;;;;;;;;5050945;28;20448;-67
2023/06/07 11:23:25;;;;;;;55.40;1.60;;;;;;;;;;5051254;28;20471;-67
2023/06/07 11:25:53;;;;;;;55.40;1.80;;;;;;;;;;5051680;28;20456;-68
2023/06/07 11:28:23;;;;;;;55.13;1.70;;;;;;;;;;5051046;28;20531;-68
2023/06/07 11:30:51;;;;;;;55.30;1.77;;;;;;;;;;5050847;28;20805;-67
2023/06/07 11:33:21;;;;;;;55.20;1.60;;;;;;;;;;5051512;28;20464;-67
2023/06/07 11:35:48;;;;;;;55.27;1.70;;;;;;;;;;5051357;28;20574;-67
2023/06/07 11:38:16;;;;;;;55.70;2.03;;;;;;;;;;5051265;28;20443;-67
2023/06/07 11:40:43;;;;;;;55.27;1.40;;;;;;;;;;5050652;28;20861;-67
2023/06/07 11:43:11;;;;;;;55.27;1.60;;;;;;;;;;5051180;28;20545;-67
2023/06/07 11:45:38;;;;;;;55.27;1.40;;;;;;;;;;5050943;28;20529;-68
2023/06/07 11:48:05;;;;;;;55.30;1.50;;;;;;;;;;5051488;28;20479;-67
2023/06/07 11:50:35;;;;;;;56.77;2.17;;;;;;;;;;5050587;28;20444;-67
2023/06/07 11:53:02;;;;;;;55.20;1.80;;;;;;;;;;5051271;28;20543;-67
2023/06/07 11:55:29;;;;;;;54.87;1.43;;;;;;;;;;5050779;28;20487;-68
2023/06/07 11:57:56;;;;;;;55.10;1.63;;;;;;;;;;5051659;28;20431;-68
2023/06/07 12:00:24;;;;;;;55.07;1.33;;;;;;;;;;5050590;28;20448;-68
2023/06/07 12:02:52;;;;;;;55.37;1.93;;;;;;;;;;5050896;28;21086;-68
2023/06/07 12:05:26;;;;;;;55.50;1.70;;;;;;;;;;5051072;28;20450;-68
2023/06/07 12:07:56;;;;;;;54.90;1.70;;;;;;;;;;5051548;28;20443;-68
2023/06/07 12:10:27;;;;;;;54.97;1.60;;;;;;;;;;5050638;28;20497;-68
2023/06/07 12:13:10;;;;;;;55.30;1.90;;;;;;;;;;5050720;28;20469;-68
2023/06/07 12:15:47;;;;;;;55.03;1.80;;;;;;;;;;5050837;28;20480;-68
2023/06/07 12:18:14;;;;;;;55.37;1.40;;;;;;;;;;5051101;28;20444;-68
2023/06/07 12:20:42;;;;;;;55.10;1.50;;;;;;;;;;5050167;28;20945;-68
2023/06/07 12:23:11;;;;;;;55.07;1.80;;;;;;;;;;5050698;28;20480;-68
2023/06/07 12:25:39;;;;;;;55.20;1.87;;;;;;;;;;5050680;28;20444;-68
2023/06/07 12:28:07;;;;;;;55.07;1.60;;;;;;;;;;5050792;28;20471;-68
2023/06/07 12:30:34;;;;;;;55.00;1.90;;;;;;;;;;5052463;28;20457;-68
2023/06/07 12:33:01;;;;;;;55.20;1.90;;;;;;;;;;5054556;28;20852;-68
2023/06/07 12:35:37;;;;;;;55.00;1.80;;;;;;;;;;5054700;28;20531;-68
2023/06/07 12:38:04;;;;;;;55.07;1.63;;;;;;;;;;5054624;28;20436;-68
2023/06/07 12:40:32;;;;;;;55.30;1.90;;;;;;;;;;5053895;28;20542;-68
2023/06/07 12:42:59;;;;;;;55.43;1.80;;;;;;;;;;5054177;28;20480;-68
2023/06/07 12:45:27;;;;;;;55.10;1.50;;;;;;;;;;5054509;28;20448;-68
2023/06/07 12:47:54;;;;;;;54.90;1.50;;;;;;;;;;5054384;28;20448;-68
2023/06/07 12:50:21;;;;;;;55.20;1.70;;;;;;;;;;5053842;28;21018;-68
2023/06/07 12:52:48;;;;;;;54.73;1.87;;;;;;;;;;5054144;28;20478;-68
2023/06/07 12:55:15;;;;;;;54.87;1.80;;;;;;;;;;5054001;28;20452;-68
2023/06/07 12:57:44;;;;;;;55.13;2.07;;;;;;;;;;5054029;28;20949;-68
2023/06/07 13:00:12;;;;;;;54.87;1.70;;;;;;;;;;5053617;28;20514;-68
2023/06/07 13:02:39;;;;;;;55.07;1.60;;;;;;;;;;5054164;28;20488;-68
2023/06/07 13:05:08;;;;;;;54.63;1.60;;;;;;;;;;5054224;28;20539;-68
2023/06/07 13:07:35;;;;;;;54.90;1.43;;;;;;;;;;5053969;28;20463;-68
2023/06/07 13:10:03;;;;;;;54.77;1.40;;;;;;;;;;5053405;28;20452;-68
2023/06/07 13:12:31;;;;;;;55.00;1.60;;;;;;;;;;5053699;28;20464;-68
2023/06/07 13:14:59;;;;;;;55.00;1.83;;;;;;;;;;5054232;28;20444;-68
2023/06/07 13:17:26;;;;;;;55.00;1.90;;;;;;;;;;5054058;28;20448;-68
2023/06/07 13:19:53;;;;;;;54.90;1.70;;;;;;;;;;5053305;28;20470;-69
2023/06/07 13:22:21;;;;;;;54.67;1.47;;;;;;;;;;5053750;28;20483;-68
2023/06/07 13:24:48;;;;;;;55.00;1.60;;;;;;;;;;5053968;28;20445;-69
2023/06/07 13:27:15;;;;;;;54.70;1.40;;;;;;;;;;5054035;28;20448;-69
2023/06/07 13:29:42;;;;;;;54.60;1.40;;;;;;;;;;5052969;28;20448;-68
2023/06/07 13:32:11;;;;;;;54.67;1.60;;;;;;;;;;5053682;28;20468;-68
2023/06/07 13:34:38;;;;;;;55.00;1.67;;;;;;;;;;5053430;28;20463;-68
2023/06/07 13:37:06;;;;;;;54.90;1.50;;;;;;;;;;5053446;28;20507;-68
2023/06/07 13:39:33;;;;;;;54.77;1.77;;;;;;;;;;5052938;28;20861;-69
2023/06/07 13:42:00;;;;;;;54.90;1.40;;;;;;;;;;5053058;28;20468;-68
2023/06/07 13:44:28;;;;;;;54.80;1.60;;;;;;;;;;5053078;28;20492;-68
2023/06/07 13:46:55;;;;;;;55.03;1.60;;;;;;;;;;5053579;28;20480;-68
2023/06/07 13:49:24;;;;;;;55.10;1.60;;;;;;;;;;5052375;28;20462;-68
2023/06/07 13:51:51;;;;;;;55.10;1.60;;;;;;;;;;5053364;28;20455;-68
2023/06/07 13:54:18;;;;;;;55.40;1.63;;;;;;;;;;5053353;28;20448;-68
2023/06/07 13:56:45;;;;;;;55.00;1.50;;;;;;;;;;5053056;28;20456;-68
2023/06/07 13:59:13;;;;;;;55.00;1.63;;;;;;;;;;5052875;28;20471;-68
2023/06/07 14:01:40;;;;;;;54.87;1.50;;;;;;;;;;5052904;28;21011;-68
2023/06/07 14:04:08;;;;;;;55.27;1.50;;;;;;;;;;5053145;28;20480;-68
2023/06/07 14:06:38;;;;;;;55.30;1.80;;;;;;;;;;5053229;28;20456;-68
2023/06/07 14:09:06;;;;;;;55.17;1.80;;;;;;;;;;5052233;28;20518;-68
2023/06/07 14:11:34;;;;;;;55.27;1.60;;;;;;;;;;5052770;28;20460;-68
2023/06/07 14:14:01;;;;;;;55.13;1.40;;;;;;;;;;5053145;28;20444;-68
2023/06/07 14:16:28;;;;;;;55.30;1.60;;;;;;;;;;5052501;28;20964;-68
2023/06/07 14:18:55;;;;;;;55.33;1.50;;;;;;;;;;5052066;28;20471;-68
2023/06/07 14:21:22;;;;;;;55.10;1.60;;;;;;;;;;5052663;28;20482;-68
2023/06/07 14:23:50;;;;;;;55.07;1.60;;;;;;;;;;5052516;28;20862;-68
2023/06/07 14:26:18;;;;;;;55.23;1.80;;;;;;;;;;5052296;28;20451;-68
2023/06/07 14:28:45;;;;;;;55.20;1.80;;;;;;;;;;5051715;28;20458;-68
2023/06/07 14:31:12;;;;;;;55.10;1.70;;;;;;;;;;5052753;28;20499;-68